createdAt,value
2019-03-03T00:00:48.182Z,10.93
2019-03-03T00:03:17.186Z,10.93
2019-03-03T00:05:49.424Z,10.92
2019-03-03T00:08:18.628Z,10.92
2019-03-03T00:10:47.792Z,10.91
2019-03-03T00:13:16.798Z,10.90
2019-03-03T00:15:45.807Z,10.89
2019-03-03T00:18:14.813Z,10.90
2019-03-03T00:20:43.965Z,10.90
2019-03-03T00:23:12.884Z,10.90
2019-03-03T00:26:00.920Z,10.91
2019-03-03T00:28:29.888Z,10.92
2019-03-03T00:30:58.887Z,10.91
2019-03-03T00:33:28.229Z,10.92
2019-03-03T00:35:57.152Z,10.92
2019-03-03T00:38:51.037Z,10.93
2019-03-03T00:41:37.820Z,10.93
2019-03-03T00:44:28.517Z,10.92
2019-03-03T00:47:31.468Z,10.93
2019-03-03T00:50:09.222Z,10.92
2019-03-03T00:52:55.853Z,10.91
2019-03-03T00:55:52.465Z,10.91
2019-03-03T00:58:39.195Z,10.92
2019-03-03T01:01:42.307Z,10.91
2019-03-03T01:04:21.887Z,10.90
2019-03-03T01:07:03.898Z,10.90
2019-03-03T01:10:06.840Z,10.91
2019-03-03T01:13:00.921Z,10.92
2019-03-03T01:16:07.235Z,10.91
2019-03-03T01:19:06.842Z,10.90
2019-03-03T01:21:41.689Z,10.91
2019-03-03T01:24:23.575Z,10.89
2019-03-03T01:26:52.634Z,10.91
2019-03-03T01:29:21.468Z,10.91
2019-03-03T01:31:50.309Z,10.91
2019-03-03T01:34:19.185Z,10.92
2019-03-03T01:36:48.068Z,10.92
2019-03-03T01:39:17.070Z,10.92
2019-03-03T01:41:46.090Z,10.92
2019-03-03T01:44:15.278Z,10.91
2019-03-03T01:46:44.315Z,10.92
2019-03-03T01:49:13.361Z,10.92
2019-03-03T01:51:42.428Z,10.92
2019-03-03T01:54:11.341Z,10.92
2019-03-03T01:56:40.360Z,10.93
2019-03-03T01:59:09.329Z,10.91
2019-03-03T02:01:38.380Z,10.92
2019-03-03T02:04:07.357Z,10.92
2019-03-03T02:06:36.242Z,10.92
2019-03-03T02:09:08.442Z,10.93
2019-03-03T02:11:37.444Z,10.93
2019-03-03T02:14:06.466Z,10.94
2019-03-03T02:16:35.579Z,10.92
2019-03-03T02:19:04.457Z,10.93
2019-03-03T02:21:33.313Z,10.94
2019-03-03T02:24:02.356Z,10.92
2019-03-03T02:26:31.479Z,10.93
2019-03-03T02:29:00.362Z,10.92
2019-03-03T02:31:29.356Z,10.90
2019-03-03T02:33:58.409Z,10.91
2019-03-03T02:36:27.387Z,10.92
2019-03-03T02:38:56.438Z,10.91
2019-03-03T02:41:25.335Z,10.91
2019-03-03T02:43:54.532Z,10.91
2019-03-03T02:46:23.353Z,10.91
2019-03-03T02:48:52.365Z,10.93
2019-03-03T02:51:21.513Z,10.92
2019-03-03T02:53:50.694Z,10.92
2019-03-03T02:56:19.788Z,10.91
2019-03-03T02:58:48.634Z,10.94
2019-03-03T03:01:21.817Z,10.95
2019-03-03T03:03:50.762Z,10.93
2019-03-03T03:06:41.106Z,10.92
2019-03-03T03:09:18.797Z,10.93
2019-03-03T03:12:31.594Z,10.93
2019-03-03T03:15:16.513Z,10.93
2019-03-03T03:17:56.892Z,10.92
2019-03-03T03:20:32.220Z,10.92
2019-03-03T03:23:13.957Z,10.91
2019-03-03T03:25:52.701Z,10.90
2019-03-03T03:28:27.925Z,10.88
2019-03-03T03:31:05.218Z,10.89
2019-03-03T03:33:52.995Z,10.89
2019-03-03T03:36:43.945Z,10.91
2019-03-03T03:39:27.249Z,10.90
2019-03-03T03:42:14.985Z,10.91
2019-03-03T03:44:52.730Z,10.90
2019-03-03T03:47:35.802Z,10.90
2019-03-03T03:50:12.271Z,10.91
2019-03-03T03:52:58.295Z,10.91
2019-03-03T03:55:38.299Z,10.91
2019-03-03T03:58:28.958Z,10.92
2019-03-03T04:01:34.790Z,10.91
2019-03-03T04:04:28.120Z,10.91
2019-03-03T04:07:14.142Z,10.90
2019-03-03T04:09:57.371Z,10.91
2019-03-03T04:12:41.136Z,10.91
2019-03-03T04:15:29.082Z,10.90
2019-03-03T04:18:16.887Z,10.90
2019-03-03T04:21:10.775Z,10.89
2019-03-03T04:23:54.293Z,10.91
2019-03-03T04:26:48.118Z,10.90
2019-03-03T04:29:39.417Z,10.90
2019-03-03T04:32:19.755Z,10.91
2019-03-03T04:34:57.304Z,10.90
2019-03-03T04:37:34.368Z,10.91
2019-03-03T04:40:14.345Z,10.91
2019-03-03T04:43:14.434Z,10.92
2019-03-03T04:45:55.781Z,10.92
2019-03-03T04:48:53.074Z,10.91
2019-03-03T04:51:30.656Z,10.89
2019-03-03T04:54:09.801Z,10.90
2019-03-03T04:56:56.412Z,10.92
2019-03-03T04:59:44.219Z,10.91
2019-03-03T05:02:50.506Z,10.90
2019-03-03T05:05:32.003Z,10.91
2019-03-03T05:08:21.049Z,10.91
2019-03-03T05:11:15.047Z,10.90
2019-03-03T05:13:51.579Z,10.90
2019-03-03T05:16:37.522Z,10.90
2019-03-03T05:19:21.338Z,10.91
2019-03-03T05:21:50.543Z,10.91
2019-03-03T05:24:19.587Z,10.90
2019-03-03T05:26:48.557Z,10.89
2019-03-03T05:29:17.359Z,10.90
2019-03-03T05:31:46.619Z,10.89
2019-03-03T05:34:15.713Z,10.92
2019-03-03T05:36:44.542Z,10.91
2019-03-03T05:39:13.353Z,10.92
2019-03-03T05:41:42.252Z,10.92
2019-03-03T05:44:11.134Z,10.92
2019-03-03T05:46:40.056Z,10.94
2019-03-03T05:49:09.078Z,10.93
2019-03-03T05:51:38.143Z,10.93
2019-03-03T05:54:07.116Z,10.94
2019-03-03T05:56:36.145Z,10.92
2019-03-03T05:59:05.124Z,10.95
2019-03-03T06:01:34.068Z,10.93
2019-03-03T06:04:02.852Z,10.92
2019-03-03T06:06:31.833Z,10.93
2019-03-03T06:09:00.823Z,10.94
2019-03-03T06:11:29.853Z,10.93
2019-03-03T06:13:58.999Z,10.94
2019-03-03T06:16:27.904Z,10.93
2019-03-03T06:18:56.860Z,10.93
2019-03-03T06:21:25.917Z,10.94
2019-03-03T06:23:54.856Z,10.93
2019-03-03T06:26:24.029Z,10.93
2019-03-03T06:28:52.970Z,10.93
2019-03-03T06:31:21.949Z,10.93
2019-03-03T06:33:50.873Z,10.93
2019-03-03T06:36:19.765Z,10.93
2019-03-03T06:38:48.889Z,10.93
2019-03-03T06:41:18.327Z,10.92
2019-03-03T06:43:47.457Z,10.94
2019-03-03T06:46:16.732Z,10.95
2019-03-03T06:48:45.607Z,10.94
2019-03-03T06:51:14.477Z,10.96
2019-03-03T06:53:43.316Z,10.95
2019-03-03T06:56:12.152Z,10.97
2019-03-03T06:58:41.141Z,10.97
2019-03-03T07:01:10.141Z,10.95
2019-03-03T07:03:39.150Z,10.97
2019-03-03T07:06:08.154Z,10.98
2019-03-03T07:08:37.226Z,10.97
2019-03-03T07:11:06.177Z,10.96
2019-03-03T07:13:35.238Z,10.99
2019-03-03T07:16:04.226Z,10.97
2019-03-03T07:18:33.239Z,10.97
2019-03-03T07:21:02.232Z,10.97
2019-03-03T07:23:31.208Z,10.97
2019-03-03T07:26:00.355Z,10.97
2019-03-03T07:28:29.203Z,10.97
2019-03-03T07:30:58.071Z,10.96
2019-03-03T07:33:30.539Z,10.98
2019-03-03T07:35:59.366Z,10.99
2019-03-03T07:38:28.393Z,10.98
2019-03-03T07:40:57.308Z,10.98
2019-03-03T07:43:26.352Z,11.00
2019-03-03T07:45:55.349Z,11.00
2019-03-03T07:48:24.353Z,11.00
2019-03-03T07:50:53.479Z,10.99
2019-03-03T07:53:22.465Z,11.00
2019-03-03T07:55:51.403Z,11.00
2019-03-03T07:58:20.449Z,11.01
2019-03-03T08:00:49.458Z,11.01
2019-03-03T08:03:18.507Z,11.02
2019-03-03T08:05:47.476Z,11.02
2019-03-03T08:08:16.547Z,11.03
2019-03-03T08:10:45.572Z,11.01
2019-03-03T08:13:14.785Z,11.03
2019-03-03T08:15:43.635Z,11.03
2019-03-03T08:18:12.505Z,11.02
2019-03-03T08:20:41.460Z,11.04
2019-03-03T08:23:10.621Z,11.04
2019-03-03T08:25:39.654Z,11.05
2019-03-03T08:28:08.686Z,11.05
2019-03-03T08:30:37.676Z,11.05
2019-03-03T08:33:06.685Z,11.05
2019-03-03T08:35:35.723Z,11.04
2019-03-03T08:38:04.774Z,11.06
2019-03-03T08:40:33.733Z,11.06
2019-03-03T08:43:24.410Z,11.03
2019-03-03T08:46:12.415Z,11.06
2019-03-03T08:49:02.965Z,11.05
2019-03-03T08:51:50.068Z,11.06
2019-03-03T08:54:57.832Z,11.05
2019-03-03T08:57:38.522Z,11.05
2019-03-03T09:00:26.034Z,11.07
2019-03-03T09:03:04.888Z,11.07
2019-03-03T09:05:55.908Z,11.06
2019-03-03T09:08:48.246Z,11.06
2019-03-03T09:11:44.074Z,11.06
2019-03-03T09:14:32.159Z,11.06
2019-03-03T09:17:26.309Z,11.06
2019-03-03T09:20:09.280Z,11.07
2019-03-03T09:22:49.501Z,11.08
2019-03-03T09:25:52.751Z,11.08
2019-03-03T09:28:42.578Z,11.07
2019-03-03T09:31:23.389Z,11.07
2019-03-03T09:34:11.308Z,11.08
2019-03-03T09:37:08.283Z,11.08
2019-03-03T09:39:56.129Z,11.08
2019-03-03T09:42:42.868Z,11.07
2019-03-03T09:45:34.605Z,11.08
2019-03-03T09:48:25.536Z,11.09
2019-03-03T09:51:19.552Z,11.10
2019-03-03T09:54:06.156Z,11.09
2019-03-03T09:57:06.357Z,11.10
2019-03-03T09:59:42.697Z,11.10
2019-03-03T10:02:20.137Z,11.10
2019-03-03T10:05:27.178Z,11.10
2019-03-03T10:08:20.743Z,11.11
2019-03-03T10:11:07.492Z,11.13
2019-03-03T10:13:53.896Z,11.13
2019-03-03T10:16:33.279Z,11.13
2019-03-03T10:19:19.045Z,11.14
2019-03-03T10:21:57.141Z,11.16
2019-03-03T10:24:44.991Z,11.17
2019-03-03T10:27:42.404Z,11.17
2019-03-03T10:30:30.778Z,11.17
2019-03-03T10:33:25.852Z,11.17
2019-03-03T10:36:13.802Z,11.17
2019-03-03T10:39:01.817Z,11.19
2019-03-03T10:41:55.350Z,11.21
2019-03-03T10:44:36.440Z,11.20
2019-03-03T10:47:20.461Z,11.23
2019-03-03T10:50:14.469Z,11.23
2019-03-03T10:52:53.395Z,11.24
2019-03-03T10:55:44.495Z,11.24
2019-03-03T10:58:23.501Z,11.26
2019-03-03T11:01:03.076Z,11.27
2019-03-03T11:03:57.070Z,11.29
2019-03-03T11:06:38.778Z,11.29
2019-03-03T11:09:32.645Z,11.31
2019-03-03T11:12:26.501Z,11.31
2019-03-03T11:15:19.446Z,10.72
2019-03-03T11:18:05.841Z,11.34
2019-03-03T11:21:05.638Z,11.34
2019-03-03T11:23:49.498Z,11.35
2019-03-03T11:26:29.072Z,11.34
2019-03-03T11:29:22.884Z,11.35
2019-03-03T11:32:19.776Z,11.39
2019-03-03T11:35:09.707Z,11.38
2019-03-03T11:37:52.737Z,11.40
2019-03-03T11:40:31.639Z,11.39
2019-03-03T11:43:18.445Z,11.38
2019-03-03T11:45:59.756Z,11.39
2019-03-03T11:48:46.496Z,11.41
2019-03-03T11:51:22.590Z,11.39
2019-03-03T11:54:04.201Z,11.39
2019-03-03T11:57:09.961Z,11.39
2019-03-03T12:00:01.082Z,11.39
2019-03-03T12:02:53.865Z,11.40
2019-03-03T12:05:27.790Z,11.38
2019-03-03T12:08:15.697Z,11.38
2019-03-03T12:11:06.339Z,11.39
2019-03-03T12:13:52.994Z,11.39
2019-03-03T12:16:34.926Z,11.41
2019-03-03T12:19:12.300Z,11.40
2019-03-03T12:22:02.980Z,11.41
2019-03-03T12:24:43.704Z,11.40
2019-03-03T12:27:29.968Z,11.40
2019-03-03T12:30:13.920Z,11.40
2019-03-03T12:33:07.516Z,11.42
2019-03-03T12:35:52.600Z,11.43
2019-03-03T12:38:58.634Z,11.41
2019-03-03T12:41:48.163Z,11.39
2019-03-03T12:44:39.141Z,11.41
2019-03-03T12:47:17.890Z,11.41
2019-03-03T12:49:58.514Z,11.41
2019-03-03T12:52:35.561Z,11.40
2019-03-03T12:55:21.563Z,11.41
2019-03-03T12:58:06.057Z,11.40
2019-03-03T13:00:45.971Z,11.40
2019-03-03T13:03:39.633Z,11.41
2019-03-03T13:06:13.742Z,11.39
2019-03-03T13:08:59.306Z,11.40
2019-03-03T13:11:40.091Z,11.40
2019-03-03T13:14:26.609Z,11.42
2019-03-03T13:17:29.813Z,11.41
2019-03-03T13:20:13.614Z,11.41
2019-03-03T13:23:10.396Z,11.42
2019-03-03T13:25:49.428Z,11.42
2019-03-03T13:28:41.081Z,11.41
2019-03-03T13:31:23.256Z,11.41
2019-03-03T13:34:10.253Z,11.44
2019-03-03T13:37:16.619Z,11.44
2019-03-03T13:39:55.446Z,11.45
2019-03-03T13:42:30.495Z,11.44
2019-03-03T13:44:59.538Z,11.45
2019-03-03T13:47:28.710Z,11.44
2019-03-03T13:49:57.618Z,11.47
2019-03-03T13:52:26.560Z,11.50
2019-03-03T13:54:55.608Z,11.49
2019-03-03T13:57:24.621Z,11.48
2019-03-03T13:59:53.674Z,11.48
2019-03-03T14:02:22.655Z,11.48
2019-03-03T14:04:51.648Z,11.48
2019-03-03T14:07:20.807Z,11.48
2019-03-03T14:09:50.061Z,11.48
2019-03-03T14:12:19.149Z,11.49
2019-03-03T14:14:48.378Z,11.50
2019-03-03T14:17:17.642Z,11.48
2019-03-03T14:19:46.740Z,11.49
2019-03-03T14:22:15.656Z,11.47
2019-03-03T14:24:44.756Z,11.47
2019-03-03T14:27:13.661Z,11.48
2019-03-03T14:29:42.703Z,11.47
2019-03-03T14:32:11.723Z,11.48
2019-03-03T14:34:40.751Z,11.48
2019-03-03T14:37:09.881Z,11.48
2019-03-03T14:39:39.461Z,11.48
2019-03-03T14:42:08.465Z,11.48
2019-03-03T14:44:37.329Z,11.47
2019-03-03T14:47:06.202Z,11.47
2019-03-03T14:49:35.037Z,11.45
2019-03-03T14:52:03.896Z,11.45
2019-03-03T14:54:32.811Z,11.44
2019-03-03T14:57:01.757Z,11.44
2019-03-03T14:59:30.687Z,11.44
2019-03-03T15:01:59.564Z,11.44
2019-03-03T15:04:28.797Z,11.45
2019-03-03T15:06:57.589Z,11.44
2019-03-03T15:09:26.965Z,11.45
2019-03-03T15:11:55.945Z,11.44
2019-03-03T15:14:24.986Z,11.46
2019-03-03T15:16:53.971Z,11.45
2019-03-03T15:19:22.884Z,11.44
2019-03-03T15:21:51.945Z,11.45
2019-03-03T15:24:20.785Z,11.44
2019-03-03T15:26:49.996Z,11.44
2019-03-03T15:29:18.968Z,11.45
2019-03-03T15:31:47.749Z,11.44
2019-03-03T15:34:16.621Z,11.45
2019-03-03T15:36:45.551Z,11.45
2019-03-03T15:39:14.458Z,11.46
2019-03-03T15:41:43.596Z,11.44
2019-03-03T15:44:12.591Z,11.44
2019-03-03T15:46:41.519Z,11.45
2019-03-03T15:49:10.630Z,11.47
2019-03-03T15:51:39.625Z,11.45
2019-03-03T15:54:08.648Z,11.45
2019-03-03T15:56:37.637Z,11.45
2019-03-03T15:59:06.637Z,11.45
2019-03-03T16:01:35.760Z,11.44
2019-03-03T16:04:04.633Z,11.44
2019-03-03T16:06:33.484Z,11.43
2019-03-03T16:09:04.231Z,11.42
2019-03-03T16:11:33.224Z,11.43
2019-03-03T16:14:02.293Z,11.41
2019-03-03T16:16:31.240Z,11.42
2019-03-03T16:19:00.083Z,11.43
2019-03-03T16:21:29.020Z,11.42
2019-03-03T16:23:58.062Z,11.42
2019-03-03T16:26:27.246Z,11.42
2019-03-03T16:28:56.363Z,11.42
2019-03-03T16:31:25.348Z,11.42
2019-03-03T16:33:54.326Z,11.41
2019-03-03T16:36:23.220Z,11.41
2019-03-03T16:38:52.451Z,11.41
2019-03-03T16:41:21.450Z,11.41
2019-03-03T16:43:50.479Z,11.40
2019-03-03T16:46:19.500Z,11.41
2019-03-03T16:48:48.547Z,11.41
2019-03-03T16:51:17.387Z,11.40
2019-03-03T16:53:46.219Z,11.41
2019-03-03T16:56:15.231Z,11.40
2019-03-03T16:58:44.236Z,11.41
2019-03-03T17:01:13.596Z,11.41
2019-03-03T17:03:42.488Z,11.41
2019-03-03T17:06:11.392Z,11.39
2019-03-03T17:08:40.398Z,11.39
2019-03-03T17:11:09.401Z,11.39
2019-03-03T17:13:38.630Z,11.39
2019-03-03T17:16:26.510Z,11.39
2019-03-03T17:18:55.612Z,11.39
2019-03-03T17:21:24.585Z,11.38
2019-03-03T17:23:53.373Z,11.38
2019-03-03T17:26:22.237Z,11.37
2019-03-03T17:28:51.160Z,11.37
2019-03-03T17:31:20.066Z,11.38
2019-03-03T17:34:12.942Z,11.37
2019-03-03T17:36:38.677Z,11.38
2019-03-03T17:39:07.578Z,11.38
2019-03-03T17:41:36.805Z,11.37
2019-03-03T17:44:24.894Z,11.38
2019-03-03T17:46:53.810Z,11.39
2019-03-03T17:49:22.901Z,11.39
2019-03-03T17:51:51.874Z,11.37
2019-03-03T17:54:20.786Z,11.37
2019-03-03T17:56:49.590Z,11.38
2019-03-03T17:59:18.672Z,11.37
2019-03-03T18:01:47.618Z,11.38
2019-03-03T18:04:16.646Z,11.38
2019-03-03T18:06:45.715Z,11.37
2019-03-03T18:09:14.648Z,11.37
2019-03-03T18:11:43.661Z,11.38
2019-03-03T18:14:12.801Z,11.38
2019-03-03T18:16:41.933Z,11.38
2019-03-03T18:19:10.966Z,11.39
2019-03-03T18:21:39.933Z,11.38
2019-03-03T18:24:09.010Z,11.38
2019-03-03T18:26:38.117Z,11.38
2019-03-03T18:29:07.069Z,11.39
2019-03-03T18:31:36.093Z,11.38
2019-03-03T18:34:05.150Z,11.39
2019-03-03T18:36:34.079Z,11.37
2019-03-03T18:39:03.347Z,11.37
2019-03-03T18:41:32.189Z,11.38
2019-03-03T18:44:01.864Z,11.38
2019-03-03T18:46:30.859Z,11.37
2019-03-03T18:48:59.865Z,11.38
2019-03-03T18:51:28.776Z,11.37
2019-03-03T18:53:57.692Z,11.37
2019-03-03T18:56:26.664Z,11.37
2019-03-03T18:58:55.802Z,11.38
2019-03-03T19:01:24.846Z,11.39
2019-03-03T19:03:53.785Z,11.37
2019-03-03T19:06:22.731Z,11.38
2019-03-03T19:08:51.781Z,11.38
2019-03-03T19:11:20.746Z,11.37
2019-03-03T19:13:49.754Z,11.38
2019-03-03T19:16:18.782Z,11.38
2019-03-03T19:19:08.588Z,11.38
2019-03-03T19:21:37.437Z,11.39
2019-03-03T19:24:06.365Z,11.37
2019-03-03T19:26:35.403Z,11.38
2019-03-03T19:29:04.745Z,11.37
2019-03-03T19:31:33.824Z,11.36
2019-03-03T19:34:04.223Z,11.37
2019-03-03T19:36:32.451Z,11.37
2019-03-03T19:39:01.409Z,11.35
2019-03-03T19:41:30.451Z,11.35
2019-03-03T19:43:59.439Z,11.36
2019-03-03T19:46:28.486Z,11.35
2019-03-03T19:48:57.552Z,11.36
2019-03-03T19:51:26.453Z,11.37
2019-03-03T19:53:55.324Z,11.37
2019-03-03T19:56:24.571Z,11.38
2019-03-03T19:58:53.585Z,11.37
2019-03-03T20:01:22.650Z,11.37
2019-03-03T20:03:51.656Z,11.37
2019-03-03T20:06:20.666Z,11.38
2019-03-03T20:08:49.593Z,11.36
2019-03-03T20:11:18.608Z,11.38
2019-03-03T20:13:47.461Z,11.37
2019-03-03T20:16:16.648Z,11.36
2019-03-03T20:18:45.473Z,11.36
2019-03-03T20:21:14.716Z,11.37
2019-03-03T20:23:43.729Z,11.37
2019-03-03T20:26:12.736Z,11.35
2019-03-03T20:28:41.741Z,11.36
2019-03-03T20:33:42.777Z,11.36
2019-03-03T20:36:11.868Z,11.36
2019-03-03T20:38:40.940Z,11.36
2019-03-03T20:41:09.957Z,11.36
2019-03-03T20:43:38.948Z,11.35
2019-03-03T20:46:07.947Z,11.36
2019-03-03T20:48:36.907Z,11.37
2019-03-03T20:51:05.937Z,11.36
2019-03-03T20:53:34.942Z,11.36
2019-03-03T20:56:03.905Z,11.36
2019-03-03T20:58:32.793Z,11.36
2019-03-03T21:01:01.796Z,11.37
2019-03-03T21:03:30.635Z,11.35
2019-03-03T21:05:59.539Z,11.36
2019-03-03T21:08:28.664Z,11.36
2019-03-03T21:10:57.783Z,11.36
2019-03-03T21:13:27.095Z,11.36
2019-03-03T21:15:57.954Z,11.36
2019-03-03T21:18:26.936Z,11.35
2019-03-03T21:20:56.083Z,11.36
2019-03-03T21:23:25.127Z,11.36
2019-03-03T21:25:54.338Z,11.35
2019-03-03T21:28:23.150Z,11.35
2019-03-03T21:30:52.105Z,11.35
2019-03-03T21:33:21.070Z,11.36
2019-03-03T21:35:50.196Z,11.36
2019-03-03T21:38:19.189Z,11.36
2019-03-03T21:40:48.115Z,11.37
2019-03-03T21:43:17.272Z,11.37
2019-03-03T21:45:46.238Z,11.37
2019-03-03T21:48:15.623Z,11.37
2019-03-03T21:50:44.645Z,11.37
2019-03-03T21:53:13.689Z,11.37
2019-03-03T21:55:42.666Z,11.37
2019-03-03T21:58:11.702Z,11.38
2019-03-03T22:00:40.821Z,11.38
2019-03-03T22:03:09.681Z,11.36
2019-03-03T22:05:38.698Z,11.37
2019-03-03T22:08:07.766Z,11.37
2019-03-03T22:10:36.776Z,11.37
2019-03-03T22:13:10.675Z,11.37
2019-03-03T22:15:39.665Z,11.36
2019-03-03T22:18:08.586Z,11.36
2019-03-03T22:20:37.510Z,11.37
2019-03-03T22:23:06.533Z,11.36
2019-03-03T22:25:35.370Z,11.37
2019-03-03T22:28:04.352Z,11.36
2019-03-03T22:30:33.350Z,11.36
2019-03-03T22:33:02.252Z,11.37
2019-03-03T22:35:31.232Z,11.37
2019-03-03T22:38:00.164Z,11.37
2019-03-03T22:40:29.354Z,11.37
2019-03-03T22:42:58.308Z,11.38
2019-03-03T22:45:27.211Z,11.37
2019-03-03T22:47:56.086Z,11.36
2019-03-03T22:50:25.031Z,11.38
2019-03-03T22:52:54.056Z,11.38
2019-03-03T22:55:23.053Z,11.37
2019-03-03T22:57:52.132Z,11.38
2019-03-03T23:00:48.299Z,11.38
2019-03-03T23:03:23.985Z,11.39
2019-03-03T23:06:33.418Z,11.37
2019-03-03T23:09:40.776Z,11.37
2019-03-03T23:12:42.345Z,11.37
2019-03-03T23:15:21.897Z,11.37
2019-03-03T23:18:45.599Z,11.36
2019-03-03T23:21:32.043Z,11.37
2019-03-03T23:24:57.486Z,11.36
2019-03-03T23:27:26.503Z,11.36
2019-03-03T23:30:01.275Z,11.34
2019-03-03T23:32:30.158Z,11.35
2019-03-03T23:34:58.876Z,11.35
2019-03-03T23:37:27.779Z,11.35
2019-03-03T23:39:56.792Z,11.35
2019-03-03T23:42:25.705Z,11.36
2019-03-03T23:44:54.637Z,11.35
2019-03-03T23:47:23.551Z,11.36
2019-03-03T23:49:52.973Z,11.37
2019-03-03T23:52:21.837Z,11.37
2019-03-03T23:54:50.864Z,11.36
2019-03-03T23:57:19.985Z,11.37
2019-03-03T23:59:48.929Z,11.36
